sensor_id;sensor_type;location;lat;lon;timestamp;temperature;humidity
7341;DHT22;6870;50.944;6.932;2023-02-11T00:01:21;19.30;24.70
7341;DHT22;6870;50.944;6.932;2023-02-11T00:03:51;19.60;24.80
7341;DHT22;6870;50.944;6.932;2023-02-11T00:06:19;19.70;24.90
7341;DHT22;6870;50.944;6.932;2023-02-11T00:08:49;19.70;24.70
7341;DHT22;6870;50.944;6.932;2023-02-11T00:11:19;19.60;25.00
7341;DHT22;6870;50.944;6.932;2023-02-11T00:13:48;19.20;24.70
7341;DHT22;6870;50.944;6.932;2023-02-11T00:16:18;19.80;25.20
7341;DHT22;6870;50.944;6.932;2023-02-11T00:18:47;19.50;24.90
7341;DHT22;6870;50.944;6.932;2023-02-11T00:21:17;19.40;24.90
7341;DHT22;6870;50.944;6.932;2023-02-11T00:23:50;19.80;25.20
7341;DHT22;6870;50.944;6.932;2023-02-11T00:26:20;19.60;25.00
7341;DHT22;6870;50.944;6.932;2023-02-11T00:28:50;19.30;24.90
7341;DHT22;6870;50.944;6.932;2023-02-11T00:31:20;19.50;25.10
7341;DHT22;6870;50.944;6.932;2023-02-11T00:33:50;19.50;25.00
7341;DHT22;6870;50.944;6.932;2023-02-11T00:36:21;19.30;24.90
7341;DHT22;6870;50.944;6.932;2023-02-11T00:38:53;19.60;25.20
7341;DHT22;6870;50.944;6.932;2023-02-11T00:41:22;19.50;25.10
7341;DHT22;6870;50.944;6.932;2023-02-11T00:43:51;19.60;25.20
7341;DHT22;6870;50.944;6.932;2023-02-11T00:46:20;19.50;25.20
7341;DHT22;6870;50.944;6.932;2023-02-11T00:48:48;19.60;24.70
7341;DHT22;6870;50.944;6.932;2023-02-11T00:51:20;19.30;25.00
7341;DHT22;6870;50.944;6.932;2023-02-11T00:53:48;19.50;25.10
7341;DHT22;6870;50.944;6.932;2023-02-11T00:56:18;19.40;25.10
7341;DHT22;6870;50.944;6.932;2023-02-11T00:58:46;19.50;24.80
7341;DHT22;6870;50.944;6.932;2023-02-11T01:01:15;19.50;25.20
7341;DHT22;6870;50.944;6.932;2023-02-11T01:03:43;19.50;25.20
7341;DHT22;6870;50.944;6.932;2023-02-11T01:06:11;19.60;25.20
7341;DHT22;6870;50.944;6.932;2023-02-11T01:08:39;19.50;25.10
7341;DHT22;6870;50.944;6.932;2023-02-11T01:11:12;19.60;25.30
7341;DHT22;6870;50.944;6.932;2023-02-11T01:13:43;19.40;25.10
7341;DHT22;6870;50.944;6.932;2023-02-11T01:16:12;19.30;24.90
7341;DHT22;6870;50.944;6.932;2023-02-11T01:18:41;19.70;24.90
7341;DHT22;6870;50.944;6.932;2023-02-11T01:21:10;19.40;24.90
7341;DHT22;6870;50.944;6.932;2023-02-11T01:23:38;19.70;24.80
7341;DHT22;6870;50.944;6.932;2023-02-11T01:26:06;19.70;24.80
7341;DHT22;6870;50.944;6.932;2023-02-11T01:28:34;19.70;24.70
7341;DHT22;6870;50.944;6.932;2023-02-11T01:31:04;19.60;24.50
7341;DHT22;6870;50.944;6.932;2023-02-11T01:33:32;19.70;24.60
7341;DHT22;6870;50.944;6.932;2023-02-11T01:36:01;19.70;24.60
7341;DHT22;6870;50.944;6.932;2023-02-11T01:38:32;19.70;24.10
7341;DHT22;6870;50.944;6.932;2023-02-11T01:41:02;19.70;24.50
7341;DHT22;6870;50.944;6.932;2023-02-11T01:43:33;19.80;24.50
7341;DHT22;6870;50.944;6.932;2023-02-11T01:46:27;19.70;24.20
7341;DHT22;6870;50.944;6.932;2023-02-11T01:49:02;19.50;24.20
7341;DHT22;6870;50.944;6.932;2023-02-11T01:51:35;19.70;24.40
7341;DHT22;6870;50.944;6.932;2023-02-11T01:54:07;19.70;24.40
7341;DHT22;6870;50.944;6.932;2023-02-11T01:56:55;19.60;25.10
7341;DHT22;6870;50.944;6.932;2023-02-11T01:59:47;19.70;24.60
7341;DHT22;6870;50.944;6.932;2023-02-11T02:02:25;19.50;24.50
7341;DHT22;6870;50.944;6.932;2023-02-11T02:05:01;19.50;24.50
7341;DHT22;6870;50.944;6.932;2023-02-11T02:07:36;19.40;24.50
7341;DHT22;6870;50.944;6.932;2023-02-11T02:10:12;19.40;24.30
7341;DHT22;6870;50.944;6.932;2023-02-11T02:12:42;19.40;24.00
7341;DHT22;6870;50.944;6.932;2023-02-11T02:15:18;19.40;24.60
7341;DHT22;6870;50.944;6.932;2023-02-11T02:17:58;19.40;24.70
7341;DHT22;6870;50.944;6.932;2023-02-11T02:20:51;19.50;24.70
7341;DHT22;6870;50.944;6.932;2023-02-11T02:23:50;19.70;24.90
7341;DHT22;6870;50.944;6.932;2023-02-11T02:30:00;19.70;25.10
7341;DHT22;6870;50.944;6.932;2023-02-11T02:32:50;19.60;24.80
7341;DHT22;6870;50.944;6.932;2023-02-11T02:35:28;19.60;24.80
7341;DHT22;6870;50.944;6.932;2023-02-11T02:38:04;19.50;24.90
7341;DHT22;6870;50.944;6.932;2023-02-11T02:40:40;19.50;25.10
7341;DHT22;6870;50.944;6.932;2023-02-11T02:43:12;19.50;25.20
7341;DHT22;6870;50.944;6.932;2023-02-11T02:45:41;19.30;25.30
7341;DHT22;6870;50.944;6.932;2023-02-11T02:48:24;18.90;25.00
7341;DHT22;6870;50.944;6.932;2023-02-11T02:50:59;19.30;25.40
7341;DHT22;6870;50.944;6.932;2023-02-11T02:53:41;19.20;25.40
7341;DHT22;6870;50.944;6.932;2023-02-11T02:56:18;19.20;25.60
7341;DHT22;6870;50.944;6.932;2023-02-11T02:59:08;19.20;25.60
7341;DHT22;6870;50.944;6.932;2023-02-11T03:01:51;19.40;25.80
7341;DHT22;6870;50.944;6.932;2023-02-11T03:04:33;19.20;25.70
7341;DHT22;6870;50.944;6.932;2023-02-11T03:07:11;18.90;25.10
7341;DHT22;6870;50.944;6.932;2023-02-11T03:09:50;19.20;25.80
7341;DHT22;6870;50.944;6.932;2023-02-11T03:12:22;19.30;26.10
7341;DHT22;6870;50.944;6.932;2023-02-11T03:14:51;19.30;26.20
7341;DHT22;6870;50.944;6.932;2023-02-11T03:17:20;19.20;26.20
7341;DHT22;6870;50.944;6.932;2023-02-11T03:19:51;19.20;25.80
7341;DHT22;6870;50.944;6.932;2023-02-11T03:22:21;19.30;26.30
7341;DHT22;6870;50.944;6.932;2023-02-11T03:24:53;19.00;26.10
7341;DHT22;6870;50.944;6.932;2023-02-11T03:27:27;18.80;26.00
7341;DHT22;6870;50.944;6.932;2023-02-11T03:30:05;18.80;26.30
7341;DHT22;6870;50.944;6.932;2023-02-11T03:32:40;19.00;26.40
7341;DHT22;6870;50.944;6.932;2023-02-11T03:35:15;19.30;26.10
7341;DHT22;6870;50.944;6.932;2023-02-11T03:37:51;19.20;26.20
7341;DHT22;6870;50.944;6.932;2023-02-11T03:40:24;19.20;26.70
7341;DHT22;6870;50.944;6.932;2023-02-11T03:42:57;19.10;26.60
7341;DHT22;6870;50.944;6.932;2023-02-11T03:45:29;19.10;26.80
7341;DHT22;6870;50.944;6.932;2023-02-11T03:48:00;19.00;26.50
7341;DHT22;6870;50.944;6.932;2023-02-11T03:50:33;18.80;26.60
7341;DHT22;6870;50.944;6.932;2023-02-11T03:53:03;19.20;26.90
7341;DHT22;6870;50.944;6.932;2023-02-11T03:55:33;19.10;26.50
7341;DHT22;6870;50.944;6.932;2023-02-11T03:58:03;18.70;26.80
7341;DHT22;6870;50.944;6.932;2023-02-11T04:00:33;19.10;27.20
7341;DHT22;6870;50.944;6.932;2023-02-11T04:03:03;18.90;27.00
7341;DHT22;6870;50.944;6.932;2023-02-11T04:05:33;19.10;27.10
7341;DHT22;6870;50.944;6.932;2023-02-11T04:08:01;19.20;27.20
7341;DHT22;6870;50.944;6.932;2023-02-11T04:10:29;18.90;27.10
7341;DHT22;6870;50.944;6.932;2023-02-11T04:12:57;19.00;27.30
7341;DHT22;6870;50.944;6.932;2023-02-11T04:15:25;18.90;27.30
7341;DHT22;6870;50.944;6.932;2023-02-11T04:17:53;19.10;27.30
7341;DHT22;6870;50.944;6.932;2023-02-11T04:20:21;18.90;27.10
7341;DHT22;6870;50.944;6.932;2023-02-11T04:22:51;19.30;27.50
7341;DHT22;6870;50.944;6.932;2023-02-11T04:25:19;18.90;27.20
7341;DHT22;6870;50.944;6.932;2023-02-11T04:27:47;18.80;27.00
7341;DHT22;6870;50.944;6.932;2023-02-11T04:30:15;19.50;27.30
7341;DHT22;6870;50.944;6.932;2023-02-11T04:32:43;19.20;26.40
7341;DHT22;6870;50.944;6.932;2023-02-11T04:35:11;19.40;26.80
7341;DHT22;6870;50.944;6.932;2023-02-11T04:37:39;19.30;26.60
7341;DHT22;6870;50.944;6.932;2023-02-11T04:40:09;19.70;26.80
7341;DHT22;6870;50.944;6.932;2023-02-11T04:42:38;19.60;26.60
7341;DHT22;6870;50.944;6.932;2023-02-11T04:45:06;19.50;26.40
7341;DHT22;6870;50.944;6.932;2023-02-11T04:47:35;19.60;26.50
7341;DHT22;6870;50.944;6.932;2023-02-11T04:50:04;19.60;26.50
7341;DHT22;6870;50.944;6.932;2023-02-11T04:52:32;19.80;26.60
7341;DHT22;6870;50.944;6.932;2023-02-11T04:55:00;19.80;26.60
7341;DHT22;6870;50.944;6.932;2023-02-11T04:57:30;19.60;26.40
7341;DHT22;6870;50.944;6.932;2023-02-11T04:59:58;19.50;26.40
7341;DHT22;6870;50.944;6.932;2023-02-11T05:02:26;19.70;26.60
7341;DHT22;6870;50.944;6.932;2023-02-11T05:04:54;19.60;26.40
7341;DHT22;6870;50.944;6.932;2023-02-11T05:07:22;19.60;26.50
7341;DHT22;6870;50.944;6.932;2023-02-11T05:09:50;19.70;26.50
7341;DHT22;6870;50.944;6.932;2023-02-11T05:12:18;19.70;26.70
7341;DHT22;6870;50.944;6.932;2023-02-11T05:14:48;19.60;26.40
7341;DHT22;6870;50.944;6.932;2023-02-11T05:17:16;19.40;26.50
7341;DHT22;6870;50.944;6.932;2023-02-11T05:19:45;19.50;26.60
7341;DHT22;6870;50.944;6.932;2023-02-11T05:22:13;19.70;26.60
7341;DHT22;6870;50.944;6.932;2023-02-11T05:24:41;19.60;26.50
7341;DHT22;6870;50.944;6.932;2023-02-11T05:27:08;19.60;26.50
7341;DHT22;6870;50.944;6.932;2023-02-11T05:29:37;19.50;26.60
7341;DHT22;6870;50.944;6.932;2023-02-11T05:32:06;19.90;26.60
7341;DHT22;6870;50.944;6.932;2023-02-11T05:34:34;19.70;26.60
7341;DHT22;6870;50.944;6.932;2023-02-11T05:37:02;19.60;26.70
7341;DHT22;6870;50.944;6.932;2023-02-11T05:39:30;19.50;26.80
7341;DHT22;6870;50.944;6.932;2023-02-11T05:41:58;19.60;27.00
7341;DHT22;6870;50.944;6.932;2023-02-11T05:44:26;19.80;27.10
7341;DHT22;6870;50.944;6.932;2023-02-11T05:46:54;19.70;27.00
7341;DHT22;6870;50.944;6.932;2023-02-11T05:49:24;19.80;27.20
7341;DHT22;6870;50.944;6.932;2023-02-11T05:51:52;19.40;26.90
7341;DHT22;6870;50.944;6.932;2023-02-11T05:54:20;19.40;26.80
7341;DHT22;6870;50.944;6.932;2023-02-11T05:56:48;19.50;26.90
7341;DHT22;6870;50.944;6.932;2023-02-11T05:59:16;19.80;26.50
7341;DHT22;6870;50.944;6.932;2023-02-11T06:01:44;19.50;26.80
7341;DHT22;6870;50.944;6.932;2023-02-11T06:04:12;19.70;26.90
7341;DHT22;6870;50.944;6.932;2023-02-11T06:06:41;20.00;26.90
7341;DHT22;6870;50.944;6.932;2023-02-11T06:09:09;19.70;27.00
7341;DHT22;6870;50.944;6.932;2023-02-11T06:11:37;19.60;27.00
7341;DHT22;6870;50.944;6.932;2023-02-11T06:14:06;19.60;27.00
7341;DHT22;6870;50.944;6.932;2023-02-11T06:16:34;20.00;27.30
7341;DHT22;6870;50.944;6.932;2023-02-11T06:19:02;19.70;27.10
7341;DHT22;6870;50.944;6.932;2023-02-11T06:21:30;19.80;27.30
7341;DHT22;6870;50.944;6.932;2023-02-11T06:24:11;19.80;27.40
7341;DHT22;6870;50.944;6.932;2023-02-11T06:26:39;19.90;27.40
7341;DHT22;6870;50.944;6.932;2023-02-11T06:29:07;19.70;27.30
7341;DHT22;6870;50.944;6.932;2023-02-11T06:31:36;19.60;27.10
7341;DHT22;6870;50.944;6.932;2023-02-11T06:34:05;19.70;27.50
7341;DHT22;6870;50.944;6.932;2023-02-11T06:36:34;19.60;27.30
7341;DHT22;6870;50.944;6.932;2023-02-11T06:39:03;19.70;27.20
7341;DHT22;6870;50.944;6.932;2023-02-11T06:41:32;19.60;27.30
7341;DHT22;6870;50.944;6.932;2023-02-11T06:44:00;19.80;27.30
7341;DHT22;6870;50.944;6.932;2023-02-11T06:46:28;19.70;27.50
7341;DHT22;6870;50.944;6.932;2023-02-11T06:48:57;20.10;27.80
7341;DHT22;6870;50.944;6.932;2023-02-11T06:51:25;19.80;27.50
7341;DHT22;6870;50.944;6.932;2023-02-11T06:53:53;19.70;27.50
7341;DHT22;6870;50.944;6.932;2023-02-11T06:56:23;20.10;27.80
7341;DHT22;6870;50.944;6.932;2023-02-11T06:58:54;20.30;27.90
7341;DHT22;6870;50.944;6.932;2023-02-11T07:01:24;19.80;27.60
7341;DHT22;6870;50.944;6.932;2023-02-11T07:03:53;19.60;27.60
7341;DHT22;6870;50.944;6.932;2023-02-11T07:06:24;19.80;27.60
7341;DHT22;6870;50.944;6.932;2023-02-11T07:08:54;19.60;27.50
7341;DHT22;6870;50.944;6.932;2023-02-11T07:11:24;20.00;27.80
7341;DHT22;6870;50.944;6.932;2023-02-11T07:14:03;19.60;27.80
7341;DHT22;6870;50.944;6.932;2023-02-11T07:16:32;19.70;27.80
7341;DHT22;6870;50.944;6.932;2023-02-11T07:19:01;19.70;27.70
7341;DHT22;6870;50.944;6.932;2023-02-11T07:21:29;19.60;27.80
7341;DHT22;6870;50.944;6.932;2023-02-11T07:23:57;20.10;28.00
7341;DHT22;6870;50.944;6.932;2023-02-11T07:26:25;19.70;27.30
7341;DHT22;6870;50.944;6.932;2023-02-11T07:28:55;19.80;28.00
7341;DHT22;6870;50.944;6.932;2023-02-11T07:31:25;19.80;28.00
7341;DHT22;6870;50.944;6.932;2023-02-11T07:33:56;19.80;28.20
7341;DHT22;6870;50.944;6.932;2023-02-11T07:36:27;19.80;27.70
7341;DHT22;6870;50.944;6.932;2023-02-11T07:38:55;19.90;28.20
7341;DHT22;6870;50.944;6.932;2023-02-11T07:41:24;20.00;28.10
7341;DHT22;6870;50.944;6.932;2023-02-11T07:43:53;19.80;28.00
7341;DHT22;6870;50.944;6.932;2023-02-11T07:46:24;19.70;28.00
7341;DHT22;6870;50.944;6.932;2023-02-11T07:48:53;20.00;28.00
7341;DHT22;6870;50.944;6.932;2023-02-11T07:51:24;19.80;28.10
7341;DHT22;6870;50.944;6.932;2023-02-11T07:53:53;19.70;28.10
7341;DHT22;6870;50.944;6.932;2023-02-11T07:56:22;19.80;28.30
7341;DHT22;6870;50.944;6.932;2023-02-11T07:58:50;19.70;28.10
7341;DHT22;6870;50.944;6.932;2023-02-11T08:01:21;19.80;27.80
7341;DHT22;6870;50.944;6.932;2023-02-11T08:03:53;19.70;28.20
7341;DHT22;6870;50.944;6.932;2023-02-11T08:06:23;19.60;28.10
7341;DHT22;6870;50.944;6.932;2023-02-11T08:08:53;20.10;28.50
7341;DHT22;6870;50.944;6.932;2023-02-11T08:11:22;19.70;28.20
7341;DHT22;6870;50.944;6.932;2023-02-11T08:13:52;19.80;28.20
7341;DHT22;6870;50.944;6.932;2023-02-11T08:16:23;20.00;28.40
7341;DHT22;6870;50.944;6.932;2023-02-11T08:18:55;20.00;28.50
7341;DHT22;6870;50.944;6.932;2023-02-11T08:21:24;20.00;28.40
7341;DHT22;6870;50.944;6.932;2023-02-11T08:23:53;20.00;28.40
7341;DHT22;6870;50.944;6.932;2023-02-11T08:26:24;19.90;28.30
7341;DHT22;6870;50.944;6.932;2023-02-11T08:28:55;19.80;28.40
7341;DHT22;6870;50.944;6.932;2023-02-11T08:31:28;19.90;28.40
7341;DHT22;6870;50.944;6.932;2023-02-11T08:33:59;19.80;28.50
7341;DHT22;6870;50.944;6.932;2023-02-11T08:36:29;19.90;28.00
7341;DHT22;6870;50.944;6.932;2023-02-11T08:38:59;20.00;28.50
7341;DHT22;6870;50.944;6.932;2023-02-11T08:41:45;19.60;28.40
7341;DHT22;6870;50.944;6.932;2023-02-11T08:44:14;19.80;28.60
7341;DHT22;6870;50.944;6.932;2023-02-11T08:46:43;20.20;28.70
7341;DHT22;6870;50.944;6.932;2023-02-11T08:49:12;19.70;28.50
7341;DHT22;6870;50.944;6.932;2023-02-11T08:51:40;19.80;28.60
7341;DHT22;6870;50.944;6.932;2023-02-11T08:54:09;20.00;28.80
7341;DHT22;6870;50.944;6.932;2023-02-11T08:56:37;19.70;28.60
7341;DHT22;6870;50.944;6.932;2023-02-11T08:59:06;20.20;28.90
7341;DHT22;6870;50.944;6.932;2023-02-11T09:01:35;20.10;28.50
7341;DHT22;6870;50.944;6.932;2023-02-11T09:04:05;19.70;28.60
7341;DHT22;6870;50.944;6.932;2023-02-11T09:06:33;20.20;28.80
7341;DHT22;6870;50.944;6.932;2023-02-11T09:09:01;19.70;28.70
7341;DHT22;6870;50.944;6.932;2023-02-11T09:11:31;19.90;28.70
7341;DHT22;6870;50.944;6.932;2023-02-11T09:14:02;20.20;29.00
7341;DHT22;6870;50.944;6.932;2023-02-11T09:16:33;20.00;28.90
7341;DHT22;6870;50.944;6.932;2023-02-11T09:19:05;20.00;28.90
7341;DHT22;6870;50.944;6.932;2023-02-11T09:21:33;19.80;28.80
7341;DHT22;6870;50.944;6.932;2023-02-11T09:24:02;19.80;28.80
7341;DHT22;6870;50.944;6.932;2023-02-11T09:26:34;20.00;28.90
7341;DHT22;6870;50.944;6.932;2023-02-11T09:29:03;20.00;29.00
7341;DHT22;6870;50.944;6.932;2023-02-11T09:31:32;19.80;28.90
7341;DHT22;6870;50.944;6.932;2023-02-11T09:34:03;20.00;29.10
7341;DHT22;6870;50.944;6.932;2023-02-11T09:36:35;20.10;29.10
7341;DHT22;6870;50.944;6.932;2023-02-11T09:39:07;19.60;28.80
7341;DHT22;6870;50.944;6.932;2023-02-11T09:44:38;20.10;29.00
7341;DHT22;6870;50.944;6.932;2023-02-11T09:47:21;19.80;29.10
7341;DHT22;6870;50.944;6.932;2023-02-11T09:49:56;20.00;29.10
7341;DHT22;6870;50.944;6.932;2023-02-11T09:52:34;19.80;29.10
7341;DHT22;6870;50.944;6.932;2023-02-11T09:55:14;20.00;29.20
7341;DHT22;6870;50.944;6.932;2023-02-11T09:57:45;19.80;29.20
7341;DHT22;6870;50.944;6.932;2023-02-11T10:00:19;20.00;29.00
7341;DHT22;6870;50.944;6.932;2023-02-11T10:03:08;19.70;29.20
7341;DHT22;6870;50.944;6.932;2023-02-11T10:06:10;19.70;29.10
7341;DHT22;6870;50.944;6.932;2023-02-11T10:08:56;20.00;29.00
7341;DHT22;6870;50.944;6.932;2023-02-11T10:11:33;20.10;29.00
7341;DHT22;6870;50.944;6.932;2023-02-11T10:14:17;20.10;28.80
7341;DHT22;6870;50.944;6.932;2023-02-11T10:17:04;20.00;29.30
7341;DHT22;6870;50.944;6.932;2023-02-11T10:19:49;20.20;29.40
7341;DHT22;6870;50.944;6.932;2023-02-11T10:22:27;19.70;29.00
7341;DHT22;6870;50.944;6.932;2023-02-11T10:25:10;19.90;28.80
7341;DHT22;6870;50.944;6.932;2023-02-11T10:27:45;20.20;29.30
7341;DHT22;6870;50.944;6.932;2023-02-11T10:30:20;19.30;24.70
7341;DHT22;6870;50.944;6.932;2023-02-11T10:32:55;17.90;24.60
7341;DHT22;6870;50.944;6.932;2023-02-11T10:35:26;17.10;26.80
7341;DHT22;6870;50.944;6.932;2023-02-11T10:37:54;17.10;26.10
7341;DHT22;6870;50.944;6.932;2023-02-11T10:40:25;16.60;26.30
7341;DHT22;6870;50.944;6.932;2023-02-11T10:42:56;16.50;27.00
7341;DHT22;6870;50.944;6.932;2023-02-11T10:45:31;16.90;27.70
7341;DHT22;6870;50.944;6.932;2023-02-11T10:48:00;17.70;27.40
7341;DHT22;6870;50.944;6.932;2023-02-11T10:50:33;18.60;26.30
7341;DHT22;6870;50.944;6.932;2023-02-11T10:53:15;18.70;25.40
7341;DHT22;6870;50.944;6.932;2023-02-11T10:55:52;19.10;25.30
7341;DHT22;6870;50.944;6.932;2023-02-11T10:58:25;19.30;25.10
7341;DHT22;6870;50.944;6.932;2023-02-11T11:00:57;19.10;25.50
7341;DHT22;6870;50.944;6.932;2023-02-11T11:03:28;18.90;25.30
7341;DHT22;6870;50.944;6.932;2023-02-11T11:06:01;19.40;25.70
7341;DHT22;6870;50.944;6.932;2023-02-11T11:08:39;19.50;25.60
7341;DHT22;6870;50.944;6.932;2023-02-11T11:11:11;19.70;25.40
7341;DHT22;6870;50.944;6.932;2023-02-11T11:13:42;19.40;24.70
7341;DHT22;6870;50.944;6.932;2023-02-11T11:16:23;19.60;25.30
7341;DHT22;6870;50.944;6.932;2023-02-11T11:19:18;19.60;25.50
7341;DHT22;6870;50.944;6.932;2023-02-11T11:21:49;19.50;25.60
7341;DHT22;6870;50.944;6.932;2023-02-11T11:24:21;19.50;25.60
7341;DHT22;6870;50.944;6.932;2023-02-11T11:26:57;19.90;25.60
7341;DHT22;6870;50.944;6.932;2023-02-11T11:29:32;19.90;25.40
7341;DHT22;6870;50.944;6.932;2023-02-11T11:32:03;19.70;25.80
7341;DHT22;6870;50.944;6.932;2023-02-11T11:34:34;19.60;25.90
7341;DHT22;6870;50.944;6.932;2023-02-11T11:37:10;19.60;25.90
7341;DHT22;6870;50.944;6.932;2023-02-11T11:39:39;19.60;25.90
7341;DHT22;6870;50.944;6.932;2023-02-11T11:42:25;19.60;25.90
7341;DHT22;6870;50.944;6.932;2023-02-11T11:44:58;19.60;25.90
7341;DHT22;6870;50.944;6.932;2023-02-11T11:47:32;19.70;26.00
7341;DHT22;6870;50.944;6.932;2023-02-11T11:50:25;19.60;25.90
7341;DHT22;6870;50.944;6.932;2023-02-11T11:52:59;19.70;26.00
7341;DHT22;6870;50.944;6.932;2023-02-11T11:55:35;19.70;26.00
7341;DHT22;6870;50.944;6.932;2023-02-11T11:58:11;19.60;25.90
7341;DHT22;6870;50.944;6.932;2023-02-11T12:00:57;19.60;26.00
7341;DHT22;6870;50.944;6.932;2023-02-11T12:06:50;19.60;26.10
7341;DHT22;6870;50.944;6.932;2023-02-11T12:09:31;19.60;26.30
7341;DHT22;6870;50.944;6.932;2023-02-11T12:12:24;19.50;26.00
7341;DHT22;6870;50.944;6.932;2023-02-11T12:15:10;19.60;26.00
7341;DHT22;6870;50.944;6.932;2023-02-11T12:18:00;19.70;26.20
7341;DHT22;6870;50.944;6.932;2023-02-11T12:20:42;19.90;26.40
7341;DHT22;6870;50.944;6.932;2023-02-11T12:23:37;19.60;26.20
7341;DHT22;6870;50.944;6.932;2023-02-11T12:26:13;19.60;26.20
7341;DHT22;6870;50.944;6.932;2023-02-11T12:28:57;19.60;26.00
7341;DHT22;6870;50.944;6.932;2023-02-11T12:31:41;19.60;26.20
7341;DHT22;6870;50.944;6.932;2023-02-11T12:34:29;19.40;26.10
7341;DHT22;6870;50.944;6.932;2023-02-11T12:37:13;19.70;26.20
7341;DHT22;6870;50.944;6.932;2023-02-11T12:39:50;19.30;26.30
7341;DHT22;6870;50.944;6.932;2023-02-11T12:42:49;19.60;26.40
7341;DHT22;6870;50.944;6.932;2023-02-11T12:45:48;19.60;26.50
7341;DHT22;6870;50.944;6.932;2023-02-11T12:48:37;19.60;26.40
7341;DHT22;6870;50.944;6.932;2023-02-11T12:51:18;19.50;26.40
7341;DHT22;6870;50.944;6.932;2023-02-11T12:54:06;19.60;26.50
7341;DHT22;6870;50.944;6.932;2023-02-11T12:56:45;19.30;26.20
7341;DHT22;6870;50.944;6.932;2023-02-11T12:59:28;19.60;26.10
7341;DHT22;6870;50.944;6.932;2023-02-11T13:02:05;19.50;26.40
7341;DHT22;6870;50.944;6.932;2023-02-11T13:04:46;19.70;26.10
7341;DHT22;6870;50.944;6.932;2023-02-11T13:07:23;19.40;26.30
7341;DHT22;6870;50.944;6.932;2023-02-11T13:09:56;19.40;25.90
7341;DHT22;6870;50.944;6.932;2023-02-11T13:12:29;19.50;26.40
7341;DHT22;6870;50.944;6.932;2023-02-11T13:15:17;19.50;26.40
7341;DHT22;6870;50.944;6.932;2023-02-11T13:17:51;19.50;26.40
7341;DHT22;6870;50.944;6.932;2023-02-11T13:20:33;19.70;26.70
7341;DHT22;6870;50.944;6.932;2023-02-11T13:23:18;19.60;26.50
7341;DHT22;6870;50.944;6.932;2023-02-11T13:25:55;19.40;26.30
7341;DHT22;6870;50.944;6.932;2023-02-11T13:28:35;19.60;26.50
7341;DHT22;6870;50.944;6.932;2023-02-11T13:31:09;19.40;26.30
7341;DHT22;6870;50.944;6.932;2023-02-11T13:33:41;19.70;26.50
7341;DHT22;6870;50.944;6.932;2023-02-11T13:36:22;19.60;26.20
7341;DHT22;6870;50.944;6.932;2023-02-11T13:38:57;19.50;26.40
7341;DHT22;6870;50.944;6.932;2023-02-11T13:41:30;19.30;26.60
7341;DHT22;6870;50.944;6.932;2023-02-11T13:44:03;19.60;26.40
7341;DHT22;6870;50.944;6.932;2023-02-11T13:46:59;19.50;25.90
7341;DHT22;6870;50.944;6.932;2023-02-11T13:49:31;19.50;26.00
7341;DHT22;6870;50.944;6.932;2023-02-11T13:52:05;19.70;27.10
7341;DHT22;6870;50.944;6.932;2023-02-11T13:54:46;19.70;26.50
7341;DHT22;6870;50.944;6.932;2023-02-11T13:57:30;19.60;26.40
7341;DHT22;6870;50.944;6.932;2023-02-11T14:03:34;19.60;26.50
7341;DHT22;6870;50.944;6.932;2023-02-11T14:06:24;19.50;26.30
7341;DHT22;6870;50.944;6.932;2023-02-11T14:09:36;19.60;26.60
7341;DHT22;6870;50.944;6.932;2023-02-11T14:12:23;19.30;26.30
7341;DHT22;6870;50.944;6.932;2023-02-11T14:15:00;19.40;26.30
7341;DHT22;6870;50.944;6.932;2023-02-11T14:17:48;19.40;26.30
7341;DHT22;6870;50.944;6.932;2023-02-11T14:20:36;19.60;26.20
7341;DHT22;6870;50.944;6.932;2023-02-11T14:23:22;19.50;26.40
7341;DHT22;6870;50.944;6.932;2023-02-11T14:28:59;19.40;26.30
7341;DHT22;6870;50.944;6.932;2023-02-11T14:31:36;19.40;26.40
7341;DHT22;6870;50.944;6.932;2023-02-11T14:34:20;19.50;26.40
7341;DHT22;6870;50.944;6.932;2023-02-11T14:37:08;19.50;26.40
7341;DHT22;6870;50.944;6.932;2023-02-11T14:39:53;19.60;26.60
7341;DHT22;6870;50.944;6.932;2023-02-11T14:42:27;19.60;26.50
7341;DHT22;6870;50.944;6.932;2023-02-11T14:45:02;19.60;26.50
7341;DHT22;6870;50.944;6.932;2023-02-11T14:50:05;19.40;26.40
7341;DHT22;6870;50.944;6.932;2023-02-11T14:52:37;19.60;26.50
7341;DHT22;6870;50.944;6.932;2023-02-11T14:55:15;19.60;26.40
7341;DHT22;6870;50.944;6.932;2023-02-11T15:00:53;19.50;26.40
7341;DHT22;6870;50.944;6.932;2023-02-11T15:03:27;19.70;26.10
7341;DHT22;6870;50.944;6.932;2023-02-11T15:05:59;19.60;26.40
7341;DHT22;6870;50.944;6.932;2023-02-11T15:08:30;19.50;26.40
7341;DHT22;6870;50.944;6.932;2023-02-11T15:11:00;19.60;26.30
7341;DHT22;6870;50.944;6.932;2023-02-11T15:13:30;19.30;26.00
7341;DHT22;6870;50.944;6.932;2023-02-11T15:16:04;19.70;26.60
7341;DHT22;6870;50.944;6.932;2023-02-11T15:18:36;19.40;26.30
7341;DHT22;6870;50.944;6.932;2023-02-11T15:21:06;19.30;26.20
7341;DHT22;6870;50.944;6.932;2023-02-11T15:23:35;19.70;26.40
7341;DHT22;6870;50.944;6.932;2023-02-11T15:26:12;19.50;26.40
7341;DHT22;6870;50.944;6.932;2023-02-11T15:28:45;19.40;26.40
7341;DHT22;6870;50.944;6.932;2023-02-11T15:31:20;19.40;26.30
7341;DHT22;6870;50.944;6.932;2023-02-11T15:33:50;19.40;26.30
7341;DHT22;6870;50.944;6.932;2023-02-11T15:36:20;19.30;26.00
7341;DHT22;6870;50.944;6.932;2023-02-11T15:39:17;19.60;26.40
7341;DHT22;6870;50.944;6.932;2023-02-11T15:41:46;19.70;26.60
7341;DHT22;6870;50.944;6.932;2023-02-11T15:44:28;19.60;26.50
7341;DHT22;6870;50.944;6.932;2023-02-11T15:46:58;19.40;26.40
7341;DHT22;6870;50.944;6.932;2023-02-11T15:49:26;19.20;26.20
7341;DHT22;6870;50.944;6.932;2023-02-11T15:51:55;19.70;26.60
7341;DHT22;6870;50.944;6.932;2023-02-11T15:54:27;19.50;26.40
7341;DHT22;6870;50.944;6.932;2023-02-11T15:57:00;19.70;26.50
7341;DHT22;6870;50.944;6.932;2023-02-11T15:59:32;19.80;27.30
7341;DHT22;6870;50.944;6.932;2023-02-11T16:02:19;19.60;26.30
7341;DHT22;6870;50.944;6.932;2023-02-11T16:04:50;19.40;26.20
7341;DHT22;6870;50.944;6.932;2023-02-11T16:07:41;19.70;26.50
7341;DHT22;6870;50.944;6.932;2023-02-11T16:10:20;19.60;26.40
7341;DHT22;6870;50.944;6.932;2023-02-11T16:12:51;19.40;26.30
7341;DHT22;6870;50.944;6.932;2023-02-11T16:15:40;19.30;26.10
7341;DHT22;6870;50.944;6.932;2023-02-11T16:18:23;19.50;26.30
7341;DHT22;6870;50.944;6.932;2023-02-11T16:21:10;19.60;26.40
7341;DHT22;6870;50.944;6.932;2023-02-11T16:23:41;19.70;26.00
7341;DHT22;6870;50.944;6.932;2023-02-11T16:26:18;19.40;26.30
7341;DHT22;6870;50.944;6.932;2023-02-11T16:28:48;19.30;26.00
7341;DHT22;6870;50.944;6.932;2023-02-11T16:31:17;19.30;26.30
7341;DHT22;6870;50.944;6.932;2023-02-11T16:33:47;19.40;26.30
7341;DHT22;6870;50.944;6.932;2023-02-11T16:36:15;19.30;26.20
7341;DHT22;6870;50.944;6.932;2023-02-11T16:38:43;19.60;26.40
7341;DHT22;6870;50.944;6.932;2023-02-11T16:41:11;19.80;26.60
7341;DHT22;6870;50.944;6.932;2023-02-11T16:43:39;19.40;26.30
7341;DHT22;6870;50.944;6.932;2023-02-11T16:46:12;19.70;26.40
7341;DHT22;6870;50.944;6.932;2023-02-11T16:48:41;19.60;26.40
7341;DHT22;6870;50.944;6.932;2023-02-11T16:51:11;19.50;26.10
7341;DHT22;6870;50.944;6.932;2023-02-11T16:53:39;19.50;26.30
7341;DHT22;6870;50.944;6.932;2023-02-11T16:56:13;19.60;26.40
7341;DHT22;6870;50.944;6.932;2023-02-11T16:58:43;19.80;26.70
7341;DHT22;6870;50.944;6.932;2023-02-11T17:01:11;19.60;26.70
7341;DHT22;6870;50.944;6.932;2023-02-11T17:03:40;19.60;26.70
7341;DHT22;6870;50.944;6.932;2023-02-11T17:06:11;19.50;26.20